createdAt,value
2023-02-18T00:00:21.971Z,18.23
2023-02-18T00:02:50.325Z,18.37
2023-02-18T00:05:18.292Z,18.36
2023-02-18T00:07:45.202Z,18.42
2023-02-18T00:10:14.110Z,18.45
2023-02-18T00:12:40.842Z,18.56
2023-02-18T00:15:09.538Z,18.54
2023-02-18T00:17:36.417Z,18.61
2023-02-18T00:20:04.189Z,18.47
2023-02-18T00:22:30.873Z,18.16
2023-02-18T00:24:57.431Z,17.71
2023-02-18T00:27:24.198Z,17.93
2023-02-18T00:29:50.740Z,18.05
2023-02-18T00:32:17.339Z,17.90
2023-02-18T00:34:43.925Z,18.02
2023-02-18T00:37:10.463Z,18.08
2023-02-18T00:39:37.122Z,18.28
2023-02-18T00:42:03.863Z,18.11
2023-02-18T00:44:30.387Z,18.15
2023-02-18T00:46:57.351Z,18.22
2023-02-18T00:49:23.989Z,18.41
2023-02-18T00:51:50.639Z,18.07
2023-02-18T00:54:17.240Z,18.22
2023-02-18T00:56:43.875Z,18.23
2023-02-18T00:59:10.532Z,18.06
2023-02-18T01:01:37.688Z,17.92
2023-02-18T01:04:04.518Z,18.04
2023-02-18T01:06:31.873Z,17.87
2023-02-18T01:08:58.439Z,18.09
2023-02-18T01:11:25.374Z,18.06
2023-02-18T01:13:51.999Z,18.15
2023-02-18T01:16:18.899Z,18.15
2023-02-18T01:18:46.144Z,18.02
2023-02-18T01:21:12.930Z,18.19
2023-02-18T01:23:41.489Z,18.32
2023-02-18T01:26:09.916Z,17.88
2023-02-18T01:28:38.760Z,17.99
2023-02-18T01:31:12.399Z,17.98
2023-02-18T01:33:39.609Z,18.01
2023-02-18T01:36:07.602Z,18.03
2023-02-18T01:38:34.633Z,17.98
2023-02-18T01:41:01.505Z,17.95
2023-02-18T01:43:29.046Z,17.99
2023-02-18T01:46:00.335Z,18.10
2023-02-18T01:48:41.289Z,18.12
2023-02-18T01:51:14.007Z,18.13
2023-02-18T01:53:47.691Z,18.10
2023-02-18T01:56:20.500Z,17.98
2023-02-18T01:58:48.083Z,18.10
2023-02-18T02:01:14.886Z,17.95
2023-02-18T02:03:41.556Z,17.88
2023-02-18T02:06:18.659Z,17.84
2023-02-18T02:08:51.284Z,18.05
2023-02-18T02:11:20.759Z,18.02
2023-02-18T02:14:11.970Z,18.13
2023-02-18T02:17:01.771Z,18.20
2023-02-18T02:20:05.995Z,18.31
2023-02-18T02:22:57.604Z,18.64
2023-02-18T02:26:04.361Z,18.44
2023-02-18T02:28:49.046Z,18.52
2023-02-18T02:31:40.371Z,18.63
2023-02-18T02:34:38.060Z,18.21
2023-02-18T02:37:28.284Z,18.45
2023-02-18T02:40:15.118Z,18.87
2023-02-18T02:43:07.956Z,19.23
2023-02-18T02:45:41.778Z,18.65
2023-02-18T02:48:30.333Z,18.63
2023-02-18T02:50:56.849Z,18.87
2023-02-18T02:53:28.724Z,18.80
2023-02-18T02:55:56.131Z,18.58
2023-02-18T02:58:23.889Z,18.57
2023-02-18T03:01:07.874Z,18.67
2023-02-18T03:04:05.250Z,18.53
2023-02-18T03:06:57.867Z,18.60
2023-02-18T03:09:30.577Z,18.57
2023-02-18T03:12:16.666Z,18.55
2023-02-18T03:15:05.189Z,18.65
2023-02-18T03:17:46.091Z,18.57
2023-02-18T03:20:35.381Z,18.48
2023-02-18T03:23:07.060Z,18.51
2023-02-18T03:25:36.702Z,18.61
2023-02-18T03:28:09.751Z,18.57
2023-02-18T03:30:57.001Z,18.85
2023-02-18T03:33:28.719Z,18.50
2023-02-18T03:35:57.109Z,18.33
2023-02-18T03:38:38.838Z,18.49
2023-02-18T03:41:06.482Z,18.23
2023-02-18T03:43:34.226Z,18.42
2023-02-18T03:46:02.380Z,18.27
2023-02-18T03:48:29.311Z,18.38
2023-02-18T03:50:55.895Z,18.40
2023-02-18T03:53:22.959Z,18.49
2023-02-18T03:55:50.184Z,18.56
2023-02-18T03:58:16.784Z,18.62
2023-02-18T04:00:43.394Z,18.49
2023-02-18T04:03:10.149Z,18.83
2023-02-18T04:05:36.736Z,18.92
2023-02-18T04:08:03.296Z,18.96
2023-02-18T04:10:29.816Z,18.88
2023-02-18T04:12:56.411Z,18.80
2023-02-18T04:15:22.946Z,18.91
2023-02-18T04:17:50.097Z,18.82
2023-02-18T04:20:16.683Z,18.99
2023-02-18T04:22:43.251Z,19.11
2023-02-18T04:25:09.811Z,19.15
2023-02-18T04:27:36.382Z,19.10
2023-02-18T04:30:04.993Z,18.97
2023-02-18T04:32:31.682Z,18.96
2023-02-18T04:34:58.268Z,19.06
2023-02-18T04:37:25.028Z,19.36
2023-02-18T04:39:51.626Z,19.32
2023-02-18T04:42:18.173Z,19.24
2023-02-18T04:44:47.021Z,18.94
2023-02-18T04:47:14.083Z,18.93
2023-02-18T04:49:40.664Z,18.77
2023-02-18T04:52:07.218Z,18.80
2023-02-18T04:54:33.825Z,18.90
2023-02-18T04:57:00.389Z,18.94
2023-02-18T04:59:26.942Z,19.05
2023-02-18T05:01:53.484Z,18.94
2023-02-18T05:04:20.192Z,19.03
2023-02-18T05:06:46.753Z,18.88
2023-02-18T05:09:13.437Z,19.16
2023-02-18T05:11:40.201Z,19.06
2023-02-18T05:14:06.795Z,19.04
2023-02-18T05:16:33.408Z,18.67
2023-02-18T05:19:00.123Z,18.86
2023-02-18T05:21:26.799Z,18.89
2023-02-18T05:23:53.404Z,19.04
2023-02-18T05:26:20.105Z,18.92
2023-02-18T05:28:46.707Z,19.01
2023-02-18T05:31:13.294Z,18.79
2023-02-18T05:33:39.999Z,18.81
2023-02-18T05:36:07.165Z,18.79
2023-02-18T05:38:33.995Z,18.91
2023-02-18T05:41:01.399Z,19.04
2023-02-18T05:43:27.994Z,18.87
2023-02-18T05:45:54.476Z,18.80
2023-02-18T05:48:21.068Z,18.96
2023-02-18T05:50:47.604Z,19.14
2023-02-18T05:53:16.092Z,19.00
2023-02-18T05:55:43.904Z,19.03
2023-02-18T05:58:10.509Z,18.89
2023-02-18T06:00:37.030Z,18.80
2023-02-18T06:03:03.743Z,19.36
2023-02-18T06:05:30.351Z,18.55
2023-02-18T06:07:56.980Z,18.70
2023-02-18T06:10:23.493Z,18.56
2023-02-18T06:12:50.216Z,18.83
2023-02-18T06:15:16.868Z,18.71
2023-02-18T06:17:43.407Z,18.72
2023-02-18T06:20:10.440Z,18.63
2023-02-18T06:22:37.007Z,18.13
2023-02-18T06:25:03.613Z,18.49
2023-02-18T06:27:30.246Z,18.62
2023-02-18T06:29:56.762Z,18.41
2023-02-18T06:32:23.401Z,18.41
2023-02-18T06:34:50.006Z,18.77
2023-02-18T06:37:16.568Z,18.67
2023-02-18T06:39:43.065Z,18.30
2023-02-18T06:42:09.602Z,18.49
2023-02-18T06:44:37.912Z,18.62
2023-02-18T06:47:04.748Z,18.59
2023-02-18T06:49:31.498Z,18.90
2023-02-18T06:51:58.056Z,18.82
2023-02-18T06:54:25.286Z,18.91
2023-02-18T06:56:51.909Z,19.01
2023-02-18T06:59:18.400Z,19.11
2023-02-18T07:01:44.925Z,19.07
2023-02-18T07:04:11.416Z,19.12
2023-02-18T07:06:38.045Z,19.04
2023-02-18T07:09:05.589Z,19.26
2023-02-18T07:11:32.179Z,19.23
2023-02-18T07:13:58.764Z,18.90
2023-02-18T07:16:25.521Z,18.81
2023-02-18T07:18:52.109Z,18.82
2023-02-18T07:21:18.754Z,18.64
2023-02-18T07:23:45.301Z,18.79
2023-02-18T07:26:14.216Z,19.06
2023-02-18T07:28:41.811Z,19.16
2023-02-18T07:31:09.023Z,18.90
2023-02-18T07:33:35.681Z,18.56
2023-02-18T07:36:03.398Z,18.71
2023-02-18T07:38:30.703Z,18.91
2023-02-18T07:40:58.351Z,19.15
2023-02-18T07:43:25.335Z,18.88
2023-02-18T07:45:52.093Z,18.69
2023-02-18T07:48:18.778Z,18.88
2023-02-18T07:50:46.567Z,18.70
2023-02-18T07:53:15.131Z,18.59
2023-02-18T07:55:51.151Z,18.46
2023-02-18T07:58:23.821Z,18.63
2023-02-18T08:00:51.450Z,18.66
2023-02-18T08:03:18.624Z,18.77
2023-02-18T08:05:45.419Z,18.64
2023-02-18T08:08:16.991Z,18.34
2023-02-18T08:10:44.042Z,18.79
2023-02-18T08:13:10.706Z,19.11
2023-02-18T08:15:37.731Z,19.09
2023-02-18T08:18:05.404Z,18.83
2023-02-18T08:20:35.412Z,18.50
2023-02-18T08:23:02.074Z,18.46
2023-02-18T08:25:29.894Z,18.72
2023-02-18T08:27:57.369Z,18.82
2023-02-18T08:30:23.998Z,18.79
2023-02-18T08:32:51.028Z,18.48
2023-02-18T08:35:17.630Z,18.73
2023-02-18T08:37:53.753Z,18.63
2023-02-18T08:40:21.743Z,18.66
2023-02-18T08:42:48.409Z,18.45
2023-02-18T08:45:14.995Z,18.61
2023-02-18T08:48:17.728Z,18.39
2023-02-18T08:50:28.189Z,18.38
2023-02-18T08:52:54.814Z,18.44
2023-02-18T08:55:21.590Z,18.23
2023-02-18T08:57:48.721Z,17.92
2023-02-18T09:00:17.134Z,17.70
2023-02-18T09:02:44.116Z,17.71
2023-02-18T09:05:11.224Z,17.62
2023-02-18T09:07:37.959Z,17.83
2023-02-18T09:10:05.398Z,17.88
2023-02-18T09:12:32.289Z,18.06
2023-02-18T09:14:59.102Z,17.76
2023-02-18T09:17:25.663Z,17.93
2023-02-18T09:19:53.493Z,17.69
2023-02-18T09:22:20.098Z,17.74
2023-02-18T09:24:46.844Z,17.97
2023-02-18T09:27:13.706Z,18.13
2023-02-18T09:29:41.480Z,18.26
2023-02-18T09:32:09.220Z,18.16
2023-02-18T09:34:36.709Z,18.05
2023-02-18T09:37:03.879Z,17.54
2023-02-18T09:39:30.525Z,17.60
2023-02-18T09:42:00.373Z,17.76
2023-02-18T09:44:44.008Z,17.92
2023-02-18T09:47:16.206Z,17.77
2023-02-18T09:49:52.162Z,17.71
2023-02-18T09:52:25.636Z,17.92
2023-02-18T09:54:52.367Z,18.26
2023-02-18T09:57:41.261Z,18.54
2023-02-18T10:00:15.629Z,18.89
2023-02-18T10:02:57.786Z,18.80
2023-02-18T10:05:28.120Z,18.59
2023-02-18T10:08:00.508Z,18.95
2023-02-18T10:10:43.477Z,18.90
2023-02-18T10:13:19.149Z,19.13
2023-02-18T10:15:46.718Z,19.13
2023-02-18T10:18:32.522Z,19.03
2023-02-18T10:21:22.413Z,18.87
2023-02-18T10:24:10.942Z,18.92
2023-02-18T10:26:38.329Z,18.88
2023-02-18T10:29:13.792Z,19.07
2023-02-18T10:31:43.013Z,18.90
2023-02-18T10:34:53.720Z,19.22
2023-02-18T10:37:26.344Z,19.05
2023-02-18T10:40:24.720Z,19.32
2023-02-18T10:43:28.327Z,19.10
2023-02-18T10:46:06.926Z,18.97
2023-02-18T10:48:54.975Z,18.92
2023-02-18T10:51:25.891Z,19.08
2023-02-18T10:53:53.885Z,18.65
2023-02-18T10:56:48.457Z,18.46
2023-02-18T10:59:23.925Z,18.13
2023-02-18T11:02:17.335Z,18.16
2023-02-18T11:04:45.686Z,17.93
2023-02-18T11:07:15.732Z,18.18
2023-02-18T11:09:48.030Z,18.38
2023-02-18T11:12:23.076Z,18.17
2023-02-18T11:15:04.979Z,18.19
2023-02-18T11:17:33.774Z,18.38
2023-02-18T11:20:02.317Z,18.41
2023-02-18T11:22:36.758Z,18.53
2023-02-18T11:25:18.867Z,18.30
2023-02-18T11:27:49.772Z,18.58
2023-02-18T11:30:22.759Z,18.40
2023-02-18T11:32:53.562Z,18.43
2023-02-18T11:35:23.793Z,18.70
2023-02-18T11:37:51.564Z,18.41
2023-02-18T11:40:36.329Z,18.66
2023-02-18T11:43:15.196Z,18.65
2023-02-18T11:45:42.280Z,18.68
2023-02-18T11:48:16.442Z,18.65
2023-02-18T11:50:44.016Z,18.61
2023-02-18T11:53:35.289Z,18.28
2023-02-18T11:56:20.198Z,18.44
2023-02-18T11:58:48.483Z,18.51
2023-02-18T12:01:41.387Z,18.01
2023-02-18T12:04:13.234Z,18.44
2023-02-18T12:06:39.773Z,18.23
2023-02-18T12:09:36.448Z,18.44
2023-02-18T12:12:16.496Z,18.75
2023-02-18T12:14:43.796Z,18.52
2023-02-18T12:17:30.852Z,18.61
2023-02-18T12:20:14.967Z,18.65
2023-02-18T12:22:44.322Z,19.03
2023-02-18T12:25:25.142Z,19.25
2023-02-18T12:28:11.746Z,19.20
2023-02-18T12:30:50.453Z,18.77
2023-02-18T12:33:46.772Z,18.30
2023-02-18T12:36:31.765Z,18.15
2023-02-18T12:39:45.008Z,17.99
2023-02-18T12:42:19.495Z,18.01
2023-02-18T12:45:02.008Z,18.06
2023-02-18T12:47:39.692Z,18.16
2023-02-18T12:50:28.209Z,18.12
2023-02-18T12:53:13.096Z,17.95
2023-02-18T12:55:48.645Z,18.24
2023-02-18T12:58:20.167Z,18.22
2023-02-18T13:01:11.829Z,18.14
2023-02-18T13:04:10.215Z,17.98
2023-02-18T13:06:50.306Z,18.35
2023-02-18T13:09:32.139Z,18.38
2023-02-18T13:12:24.257Z,18.32
2023-02-18T13:15:18.979Z,18.46
2023-02-18T13:17:47.360Z,18.83
2023-02-18T13:20:14.487Z,18.80
2023-02-18T13:22:41.760Z,18.60
2023-02-18T13:25:13.422Z,18.67
2023-02-18T13:28:05.104Z,18.66
2023-02-18T13:30:40.511Z,18.47
2023-02-18T13:33:16.179Z,18.50
2023-02-18T13:35:52.214Z,18.60
2023-02-18T13:38:46.160Z,18.70
2023-02-18T13:41:12.757Z,18.86
2023-02-18T13:48:27.863Z,18.36
2023-02-18T13:51:00.479Z,18.70
2023-02-18T13:53:31.856Z,18.90
2023-02-18T13:56:05.371Z,19.13
2023-02-18T13:58:49.510Z,19.21
2023-02-18T14:01:31.918Z,18.92
2023-02-18T14:04:00.450Z,19.23
2023-02-18T14:06:33.490Z,19.56
2023-02-18T14:09:12.368Z,19.48
2023-02-18T14:11:49.692Z,19.47
2023-02-18T14:14:25.995Z,19.62
2023-02-18T14:17:14.669Z,19.43
2023-02-18T14:19:41.284Z,19.49
2023-02-18T14:22:28.274Z,19.11
2023-02-18T14:25:10.849Z,19.32
2023-02-18T14:27:42.518Z,19.45
2023-02-18T14:30:21.360Z,19.37
2023-02-18T14:32:50.716Z,19.29
2023-02-18T14:35:42.903Z,19.53
2023-02-18T14:38:28.453Z,19.41
2023-02-18T14:41:13.867Z,19.69
2023-02-18T14:43:49.337Z,19.41
2023-02-18T14:46:16.014Z,19.60
2023-02-18T14:49:12.562Z,19.62
2023-02-18T14:51:43.314Z,19.37
2023-02-18T14:54:16.253Z,19.26
2023-02-18T14:57:03.899Z,19.43
2023-02-18T14:59:35.325Z,19.58
2023-02-18T15:02:02.003Z,19.71
2023-02-18T15:04:29.129Z,19.62
2023-02-18T15:07:04.592Z,19.42
2023-02-18T15:09:31.852Z,19.45
2023-02-18T15:12:06.567Z,19.83
2023-02-18T15:14:39.660Z,19.70
2023-02-18T15:17:11.596Z,19.74
2023-02-18T15:19:42.936Z,19.76
2023-02-18T15:22:22.048Z,19.78
2023-02-18T15:24:50.693Z,19.80
2023-02-18T15:27:23.744Z,19.77
2023-02-18T15:29:52.816Z,20.00
2023-02-18T15:32:24.050Z,19.82
2023-02-18T15:34:53.156Z,20.03
2023-02-18T15:37:20.463Z,20.12
2023-02-18T15:39:47.729Z,19.97
2023-02-18T15:42:23.793Z,19.76
2023-02-18T15:44:55.867Z,19.77
2023-02-18T15:47:23.677Z,19.65
2023-02-18T15:49:54.174Z,19.83
2023-02-18T15:52:30.486Z,19.88
2023-02-18T15:55:03.140Z,19.57
2023-02-18T15:57:30.586Z,19.53
2023-02-18T16:00:18.713Z,19.88
2023-02-18T16:03:22.630Z,19.99
2023-02-18T16:05:50.769Z,20.26
2023-02-18T16:08:25.454Z,20.16
2023-02-18T16:11:06.548Z,19.89
2023-02-18T16:13:35.265Z,20.09
2023-02-18T16:16:02.023Z,20.10
2023-02-18T16:18:34.897Z,19.76
2023-02-18T16:21:43.856Z,19.99
2023-02-18T16:24:28.593Z,20.11
2023-02-18T16:27:00.039Z,19.95
2023-02-18T16:29:35.134Z,19.76
2023-02-18T16:32:02.003Z,19.95
2023-02-18T16:34:28.968Z,19.86
2023-02-18T16:37:14.169Z,19.73
2023-02-18T16:39:41.041Z,19.73
2023-02-18T16:42:11.402Z,19.68
2023-02-18T16:44:38.796Z,19.44
2023-02-18T16:47:06.260Z,19.62
2023-02-18T16:49:34.291Z,19.37
2023-02-18T16:52:06.696Z,19.55
2023-02-18T16:54:34.481Z,19.73
2023-02-18T16:57:00.966Z,19.66
2023-02-18T16:59:27.545Z,19.48
2023-02-18T17:01:55.902Z,19.48
2023-02-18T17:04:23.441Z,19.45
2023-02-18T17:06:50.083Z,19.48
2023-02-18T17:09:18.136Z,19.53
2023-02-18T17:11:46.366Z,19.36
2023-02-18T17:14:17.996Z,19.50
2023-02-18T17:16:46.329Z,19.43
2023-02-18T17:19:13.103Z,19.62
2023-02-18T17:21:39.976Z,19.41
2023-02-18T17:24:14.795Z,19.43
2023-02-18T17:26:41.855Z,19.62
2023-02-18T17:29:08.806Z,19.68
2023-02-18T17:31:47.192Z,19.47
2023-02-18T17:34:21.708Z,19.35
2023-02-18T17:36:48.323Z,19.46
2023-02-18T17:39:17.651Z,19.58
2023-02-18T17:41:44.598Z,19.49
2023-02-18T17:44:19.571Z,19.54
2023-02-18T17:46:46.638Z,19.54
2023-02-18T17:49:13.407Z,19.64
2023-02-18T17:51:40.145Z,19.74
2023-02-18T17:54:17.464Z,19.96
2023-02-18T17:56:45.071Z,19.92
2023-02-18T17:59:12.016Z,19.78
2023-02-18T18:01:38.979Z,19.82
2023-02-18T18:04:13.233Z,19.87
2023-02-18T18:06:40.091Z,20.15
2023-02-18T18:09:06.890Z,20.10
2023-02-18T18:11:33.986Z,20.40
2023-02-18T18:14:01.121Z,20.30
2023-02-18T18:16:31.548Z,20.32
2023-02-18T18:18:58.141Z,20.24
2023-02-18T18:21:35.487Z,20.26
2023-02-18T18:24:02.530Z,20.11
2023-02-18T18:26:30.000Z,20.36
2023-02-18T18:28:56.969Z,20.31
2023-02-18T18:31:23.708Z,20.43
2023-02-18T18:33:52.998Z,20.47
2023-02-18T18:36:20.898Z,20.48
2023-02-18T18:38:47.451Z,20.35
2023-02-18T18:41:19.438Z,20.20
2023-02-18T18:43:46.821Z,20.42
2023-02-18T18:46:13.545Z,20.22
2023-02-18T18:48:40.311Z,20.10
2023-02-18T18:51:07.361Z,20.08
2023-02-18T18:53:35.561Z,20.07
2023-02-18T18:56:06.992Z,19.95
2023-02-18T18:58:34.062Z,19.96
2023-02-18T19:01:03.286Z,19.81
2023-02-18T19:03:31.245Z,19.84
2023-02-18T19:05:57.930Z,19.82
2023-02-18T19:08:24.936Z,19.90
2023-02-18T19:10:54.068Z,19.90
2023-02-18T19:13:29.470Z,19.88
2023-02-18T19:16:19.298Z,19.76
2023-02-18T19:18:47.060Z,19.66
2023-02-18T19:21:13.860Z,19.68
2023-02-18T19:23:40.736Z,19.83
2023-02-18T19:26:08.361Z,19.70
2023-02-18T19:28:35.366Z,19.61
2023-02-18T19:31:02.097Z,19.77
2023-02-18T19:33:28.863Z,19.64
2023-02-18T19:35:55.538Z,19.78
2023-02-18T19:38:22.173Z,19.82
2023-02-18T19:40:49.049Z,19.85
2023-02-18T19:43:16.053Z,20.03
2023-02-18T19:45:45.325Z,19.84
2023-02-18T19:48:13.264Z,19.95
2023-02-18T19:50:41.719Z,19.99
2023-02-18T19:53:09.124Z,19.79
2023-02-18T19:55:35.800Z,19.82
2023-02-18T19:58:02.455Z,19.64
2023-02-18T20:00:28.985Z,19.74
2023-02-18T20:02:55.629Z,19.50
2023-02-18T20:05:22.287Z,19.50
2023-02-18T20:07:48.929Z,19.54
2023-02-18T20:10:17.816Z,19.41
2023-02-18T20:12:44.549Z,19.27
2023-02-18T20:15:11.394Z,19.30
2023-02-18T20:17:39.180Z,19.42
2023-02-18T20:20:07.066Z,19.42
2023-02-18T20:22:33.925Z,19.19
2023-02-18T20:25:00.492Z,19.30
2023-02-18T20:27:27.055Z,19.13
2023-02-18T20:29:53.668Z,19.24
2023-02-18T20:32:20.357Z,19.32
2023-02-18T20:34:47.046Z,19.10
2023-02-18T20:37:13.803Z,19.54
2023-02-18T20:39:40.445Z,19.53
2023-02-18T20:42:15.834Z,19.14
2023-02-18T20:44:42.880Z,19.23
2023-02-18T20:47:09.405Z,19.20
2023-02-18T20:49:36.012Z,19.43
2023-02-18T20:52:02.604Z,19.29
2023-02-18T20:56:55.937Z,19.32
2023-02-18T20:59:22.605Z,19.27
2023-02-18T21:01:49.549Z,19.14
2023-02-18T21:04:18.523Z,19.14
2023-02-18T21:06:45.584Z,19.17
2023-02-18T21:09:13.680Z,19.24
2023-02-18T21:11:40.696Z,18.98
2023-02-18T21:14:07.538Z,19.11
2023-02-18T21:16:38.493Z,19.36
2023-02-18T21:19:12.228Z,18.87
2023-02-18T21:21:39.101Z,19.11
2023-02-18T21:24:06.132Z,19.17
2023-02-18T21:26:33.289Z,19.04
2023-02-18T21:29:01.929Z,19.05
2023-02-18T21:31:34.783Z,19.21
2023-02-18T21:34:02.044Z,19.10
2023-02-18T21:36:30.362Z,19.53
2023-02-18T21:39:00.163Z,19.32
2023-02-18T21:41:27.860Z,19.52
2023-02-18T21:43:55.114Z,19.66
2023-02-18T21:46:26.876Z,19.56
2023-02-18T21:49:03.399Z,19.51
2023-02-18T21:51:53.864Z,19.61
2023-02-18T21:54:32.263Z,19.46
2023-02-18T21:57:00.693Z,19.34
2023-02-18T21:59:29.689Z,19.52
2023-02-18T22:01:59.622Z,19.47
2023-02-18T22:04:26.926Z,19.34
2023-02-18T22:06:53.491Z,19.45
2023-02-18T22:09:20.087Z,19.23
2023-02-18T22:11:46.673Z,19.13
2023-02-18T22:14:14.644Z,19.64
2023-02-18T22:16:41.648Z,19.45
2023-02-18T22:19:10.778Z,19.32
2023-02-18T22:21:37.597Z,19.32
2023-02-18T22:24:05.822Z,19.13
2023-02-18T22:26:32.915Z,19.42
2023-02-18T22:29:00.767Z,19.28
2023-02-18T22:31:29.721Z,19.69
2023-02-18T22:33:59.604Z,19.75
2023-02-18T22:36:28.153Z,19.89
2023-02-18T22:38:55.237Z,19.74
2023-02-18T22:41:23.984Z,19.63
2023-02-18T22:43:59.129Z,19.71
2023-02-18T22:46:26.994Z,19.86
2023-02-18T22:48:55.888Z,19.73
2023-02-18T22:51:28.852Z,19.95
2023-02-18T22:53:57.278Z,19.94
2023-02-18T22:56:25.809Z,19.92
2023-02-18T22:58:54.104Z,19.86
2023-02-18T23:01:35.967Z,20.01
2023-02-18T23:04:08.998Z,20.20
2023-02-18T23:06:37.011Z,19.79
2023-02-18T23:09:05.014Z,19.48
2023-02-18T23:11:31.673Z,19.70
2023-02-18T23:14:16.883Z,19.82
2023-02-18T23:17:03.584Z,19.56
2023-02-18T23:19:32.166Z,19.69
2023-02-18T23:21:59.264Z,19.59
2023-02-18T23:24:25.863Z,19.27
2023-02-18T23:26:52.523Z,19.38
2023-02-18T23:29:19.571Z,19.74
2023-02-18T23:31:46.216Z,19.73
2023-02-18T23:34:14.913Z,19.58
2023-02-18T23:36:42.951Z,19.13
2023-02-18T23:39:13.303Z,19.01
2023-02-18T23:41:40.081Z,19.06
2023-02-18T23:44:09.836Z,19.03
2023-02-18T23:46:37.136Z,19.25
2023-02-18T23:49:04.981Z,19.06
2023-02-18T23:51:32.131Z,19.22
2023-02-18T23:54:01.502Z,19.22
2023-02-18T23:56:28.798Z,19.16
2023-02-18T23:59:00.498Z,19.21
